createdAt,value
2018-11-03T00:01:19.879Z,4.00
2018-11-03T00:03:50.450Z,4.00
2018-11-03T00:06:19.334Z,3.90
2018-11-03T00:08:48.317Z,3.80
2018-11-03T00:11:17.232Z,3.80
2018-11-03T00:13:46.189Z,3.70
2018-11-03T00:16:15.095Z,3.70
2018-11-03T00:18:44.112Z,3.70
2018-11-03T00:21:13.046Z,3.60
2018-11-03T00:23:42.084Z,3.60
2018-11-03T00:26:10.965Z,3.50
2018-11-03T00:28:39.937Z,3.50
2018-11-03T00:31:08.748Z,3.40
2018-11-03T00:33:37.815Z,3.40
2018-11-03T00:36:07.018Z,3.30
2018-11-03T00:38:36.052Z,3.30
2018-11-03T00:41:05.044Z,3.30
2018-11-03T00:43:34.045Z,3.30
2018-11-03T00:46:02.932Z,3.40
2018-11-03T00:48:31.935Z,3.40
2018-11-03T00:51:00.779Z,3.50
2018-11-03T00:53:29.840Z,3.40
2018-11-03T00:55:58.724Z,3.30
2018-11-03T00:58:27.687Z,3.20
2018-11-03T01:00:56.548Z,3.10
2018-11-03T01:03:25.631Z,3.10
2018-11-03T01:05:54.430Z,3.00
2018-11-03T01:08:23.484Z,3.00
2018-11-03T01:10:52.371Z,3.10
2018-11-03T01:13:23.317Z,3.10
2018-11-03T01:15:52.188Z,3.20
2018-11-03T01:18:21.188Z,3.10
2018-11-03T01:20:50.116Z,3.00
2018-11-03T01:23:19.110Z,3.00
2018-11-03T01:25:47.967Z,2.90
2018-11-03T01:28:16.961Z,2.80
2018-11-03T01:30:46.775Z,2.80
2018-11-03T01:33:15.693Z,2.70
2018-11-03T01:35:44.608Z,2.70
2018-11-03T01:38:13.680Z,2.70
2018-11-03T01:40:42.543Z,2.70
2018-11-03T01:43:11.459Z,2.70
2018-11-03T01:45:40.432Z,2.70
2018-11-03T01:48:09.342Z,2.80
2018-11-03T01:50:38.250Z,2.80
2018-11-03T01:53:07.282Z,2.80
2018-11-03T01:55:36.109Z,2.90
2018-11-03T01:58:05.176Z,3.00
2018-11-03T02:00:34.086Z,3.00
2018-11-03T02:03:03.113Z,3.00
2018-11-03T02:05:31.962Z,2.90
2018-11-03T02:08:00.882Z,2.90
2018-11-03T02:10:29.735Z,2.90
2018-11-03T02:12:58.673Z,2.80
2018-11-03T02:15:27.503Z,2.70
2018-11-03T02:17:56.435Z,2.70
2018-11-03T02:20:25.311Z,2.70
2018-11-03T02:22:54.257Z,2.70
2018-11-03T02:25:23.126Z,2.70
2018-11-03T02:27:52.175Z,2.70
2018-11-03T02:30:21.031Z,2.70
2018-11-03T02:32:50.021Z,2.70
2018-11-03T02:35:18.880Z,2.60
2018-11-03T02:37:47.750Z,2.60
2018-11-03T02:40:16.643Z,2.60
2018-11-03T02:42:45.616Z,2.50
2018-11-03T02:45:14.464Z,2.50
2018-11-03T02:47:43.452Z,2.50
2018-11-03T02:50:13.503Z,2.50
2018-11-03T02:52:42.781Z,2.40
2018-11-03T02:55:11.792Z,2.50
2018-11-03T02:57:40.758Z,2.50
2018-11-03T03:00:10.984Z,2.50
2018-11-03T03:02:40.057Z,2.60
2018-11-03T03:05:10.016Z,2.60
2018-11-03T03:07:38.884Z,2.60
2018-11-03T03:10:09.346Z,2.60
2018-11-03T03:12:38.459Z,2.60
2018-11-03T03:15:08.908Z,2.60
2018-11-03T03:17:37.813Z,2.60
2018-11-03T03:20:08.802Z,2.60
2018-11-03T03:22:37.707Z,2.60
2018-11-03T03:25:08.708Z,2.50
2018-11-03T03:27:37.686Z,2.50
2018-11-03T03:30:06.982Z,2.50
2018-11-03T03:32:35.853Z,2.50
2018-11-03T03:35:05.124Z,2.50
2018-11-03T03:37:33.983Z,2.40
2018-11-03T03:40:03.095Z,2.40
2018-11-03T03:42:32.010Z,2.40
2018-11-03T03:45:01.126Z,2.40
2018-11-03T03:47:30.038Z,2.40
2018-11-03T03:50:00.090Z,2.40
2018-11-03T03:52:28.954Z,2.40
2018-11-03T03:54:58.104Z,2.30
2018-11-03T03:57:27.107Z,2.30
2018-11-03T03:59:56.201Z,2.30
2018-11-03T04:02:25.054Z,2.30
2018-11-03T04:04:54.115Z,2.30
2018-11-03T04:07:23.026Z,2.30
2018-11-03T04:09:52.095Z,2.30
2018-11-03T04:12:21.017Z,2.30
2018-11-03T04:14:51.320Z,2.30
2018-11-03T04:17:20.212Z,2.30
2018-11-03T04:19:49.237Z,2.30
2018-11-03T04:22:18.048Z,2.30
2018-11-03T04:24:49.615Z,2.30
2018-11-03T04:27:18.464Z,2.30
2018-11-03T04:29:47.550Z,2.30
2018-11-03T04:32:16.482Z,2.30
2018-11-03T04:34:45.569Z,2.30
2018-11-03T04:37:14.451Z,2.30
2018-11-03T04:39:46.901Z,2.20
2018-11-03T04:42:15.784Z,2.20
2018-11-03T04:44:45.037Z,2.20
2018-11-03T04:47:13.902Z,2.20
2018-11-03T04:49:47.877Z,2.20
2018-11-03T04:52:16.715Z,2.10
2018-11-03T04:54:45.762Z,2.10
2018-11-03T04:57:14.726Z,2.10
2018-11-03T04:59:43.782Z,2.10
2018-11-03T05:02:12.672Z,2.10
2018-11-03T05:04:41.719Z,2.20
2018-11-03T05:07:10.673Z,2.20
2018-11-03T05:09:39.710Z,2.20
2018-11-03T05:12:08.546Z,2.30
2018-11-03T05:14:38.632Z,2.30
2018-11-03T05:17:07.781Z,2.20
2018-11-03T05:19:36.829Z,2.20
2018-11-03T05:22:05.775Z,2.30
2018-11-03T05:24:34.818Z,2.30
2018-11-03T05:27:03.734Z,2.30
2018-11-03T05:29:36.836Z,2.30
2018-11-03T05:32:06.019Z,2.40
2018-11-03T05:34:36.082Z,2.40
2018-11-03T05:37:05.235Z,2.40
2018-11-03T05:39:37.630Z,2.40
2018-11-03T05:42:06.893Z,2.40
2018-11-03T05:44:41.526Z,2.30
2018-11-03T05:47:10.449Z,2.30
2018-11-03T05:49:41.519Z,2.10
2018-11-03T05:52:10.426Z,2.00
2018-11-03T05:54:39.475Z,1.90
2018-11-03T05:57:08.702Z,1.80
2018-11-03T05:59:38.682Z,1.80
2018-11-03T06:02:07.574Z,1.80
2018-11-03T06:04:37.077Z,1.70
2018-11-03T06:07:05.977Z,1.70
2018-11-03T06:09:34.987Z,1.70
2018-11-03T06:12:03.819Z,1.70
2018-11-03T06:14:33.056Z,1.70
2018-11-03T06:17:01.943Z,1.70
2018-11-03T06:19:30.995Z,1.70
2018-11-03T06:21:59.834Z,1.70
2018-11-03T06:24:28.880Z,1.70
2018-11-03T06:26:57.762Z,1.80
2018-11-03T06:29:26.787Z,1.80
2018-11-03T06:31:55.718Z,1.80
2018-11-03T06:34:24.679Z,1.80
2018-11-03T06:36:53.498Z,1.80
2018-11-03T06:39:22.508Z,1.90
2018-11-03T06:41:51.396Z,1.90
2018-11-03T06:44:20.464Z,1.90
2018-11-03T06:46:49.365Z,2.00
2018-11-03T06:49:21.019Z,2.00
2018-11-03T06:51:51.138Z,2.00
2018-11-03T06:54:20.415Z,2.00
2018-11-03T06:56:49.321Z,2.10
2018-11-03T06:59:18.793Z,2.10
2018-11-03T07:01:47.775Z,2.20
2018-11-03T07:04:16.832Z,2.30
2018-11-03T07:06:45.670Z,2.30
2018-11-03T07:09:14.688Z,2.40
2018-11-03T07:11:43.554Z,2.40
2018-11-03T07:14:12.640Z,2.50
2018-11-03T07:16:41.493Z,2.60
2018-11-03T07:19:10.492Z,2.60
2018-11-03T07:21:39.459Z,2.70
2018-11-03T07:24:08.543Z,2.70
2018-11-03T07:26:37.409Z,2.70
2018-11-03T07:29:06.970Z,2.80
2018-11-03T07:31:35.822Z,2.90
2018-11-03T07:34:04.884Z,3.10
2018-11-03T07:36:33.759Z,3.20
2018-11-03T07:39:06.264Z,3.30
2018-11-03T07:41:35.178Z,3.40
2018-11-03T07:44:05.223Z,3.50
2018-11-03T07:46:34.077Z,3.70
2018-11-03T07:49:04.429Z,3.90
2018-11-03T07:51:33.111Z,4.00
2018-11-03T07:54:02.144Z,4.20
2018-11-03T07:56:31.064Z,4.30
2018-11-03T07:59:00.051Z,4.40
2018-11-03T08:01:28.919Z,4.60
2018-11-03T08:03:57.953Z,4.70
2018-11-03T08:06:26.848Z,4.90
2018-11-03T08:08:55.871Z,5.00
2018-11-03T08:11:24.773Z,5.20
2018-11-03T08:13:53.743Z,5.30
2018-11-03T08:16:22.617Z,5.40
2018-11-03T08:18:51.659Z,5.40
2018-11-03T08:21:20.969Z,5.50
2018-11-03T08:23:52.048Z,5.60
2018-11-03T08:26:21.248Z,5.70
2018-11-03T08:28:50.315Z,5.80
2018-11-03T08:31:19.189Z,5.90
2018-11-03T08:33:48.289Z,5.90
2018-11-03T08:36:17.202Z,5.90
2018-11-03T08:38:46.194Z,6.10
2018-11-03T08:41:15.076Z,6.20
2018-11-03T08:43:44.126Z,6.20
2018-11-03T08:46:13.042Z,6.30
2018-11-03T08:48:42.231Z,6.40
2018-11-03T08:51:11.139Z,6.50
2018-11-03T08:53:41.124Z,6.70
2018-11-03T08:56:10.214Z,6.90
2018-11-03T08:58:42.531Z,7.00
2018-11-03T09:01:11.440Z,7.00
2018-11-03T09:03:41.506Z,7.10
2018-11-03T09:06:10.358Z,7.20
2018-11-03T09:08:39.402Z,7.20
2018-11-03T09:11:08.321Z,7.20
2018-11-03T09:13:37.386Z,7.30
2018-11-03T09:16:06.392Z,7.40
2018-11-03T09:18:35.453Z,7.50
2018-11-03T09:21:04.277Z,7.70
2018-11-03T09:23:34.346Z,7.80
2018-11-03T09:26:03.224Z,7.80
2018-11-03T09:28:32.239Z,7.80
2018-11-03T09:31:01.158Z,7.80
2018-11-03T09:33:36.642Z,7.90
2018-11-03T09:36:05.904Z,8.00
2018-11-03T09:38:35.131Z,8.10
2018-11-03T09:41:03.976Z,8.20
2018-11-03T09:43:35.041Z,8.20
2018-11-03T09:46:03.884Z,8.30
2018-11-03T09:48:34.959Z,8.50
2018-11-03T09:51:03.920Z,8.60
2018-11-03T09:53:32.910Z,8.70
2018-11-03T09:56:01.768Z,8.80
2018-11-03T09:58:30.816Z,8.90
2018-11-03T10:00:59.683Z,9.00
2018-11-03T10:03:28.650Z,9.00
2018-11-03T10:05:57.494Z,9.10
2018-11-03T10:08:26.439Z,9.10
2018-11-03T10:10:55.354Z,9.10
2018-11-03T10:13:24.363Z,9.10
2018-11-03T10:15:53.302Z,9.20
2018-11-03T10:18:22.311Z,9.20
2018-11-03T10:20:51.174Z,9.20
2018-11-03T10:23:20.301Z,9.30
2018-11-03T10:25:49.178Z,9.30
2018-11-03T10:28:18.152Z,9.40
2018-11-03T10:30:47.098Z,9.40
2018-11-03T10:33:15.983Z,9.40
2018-11-03T10:35:44.917Z,9.30
2018-11-03T10:38:13.970Z,9.30
2018-11-03T10:40:42.906Z,9.20
2018-11-03T10:43:11.909Z,9.30
2018-11-03T10:45:40.731Z,9.20
2018-11-03T10:48:09.712Z,9.20
2018-11-03T10:50:38.567Z,9.20
2018-11-03T10:53:07.637Z,9.10
2018-11-03T10:55:36.482Z,9.10
2018-11-03T10:58:05.887Z,9.30
2018-11-03T11:00:40.131Z,9.50
2018-11-03T11:03:14.376Z,9.70
2018-11-03T11:05:48.604Z,9.90
2018-11-03T11:08:22.859Z,10.00
2018-11-03T11:10:56.993Z,10.10
2018-11-03T11:13:27.943Z,10.20
2018-11-03T11:15:58.153Z,10.30
2018-11-03T11:18:26.975Z,10.30
2018-11-03T11:20:55.910Z,10.50
2018-11-03T11:23:24.870Z,10.60
2018-11-03T11:25:53.775Z,10.70
2018-11-03T11:28:22.694Z,10.60
2018-11-03T11:30:51.911Z,10.90
2018-11-03T11:33:21.111Z,11.00
2018-11-03T11:35:51.107Z,11.20
2018-11-03T11:38:19.973Z,11.40
2018-11-03T11:40:49.004Z,11.50
2018-11-03T11:43:18.085Z,11.50
2018-11-03T11:45:46.989Z,11.70
2018-11-03T11:48:15.919Z,12.00
2018-11-03T11:50:44.841Z,12.10
2018-11-03T11:53:13.765Z,12.40
2018-11-03T11:55:42.712Z,12.50
2018-11-03T11:58:11.568Z,12.60
2018-11-03T12:00:40.835Z,12.70
2018-11-03T12:03:09.568Z,12.50
2018-11-03T12:05:38.489Z,12.70
2018-11-03T12:08:07.417Z,13.10
2018-11-03T12:10:36.440Z,13.20
2018-11-03T12:13:05.449Z,13.50
2018-11-03T12:15:34.336Z,13.60
2018-11-03T12:18:05.267Z,13.60
2018-11-03T12:20:34.563Z,13.20
2018-11-03T12:23:03.411Z,13.30
2018-11-03T12:25:33.466Z,13.50
2018-11-03T12:28:04.417Z,13.70
2018-11-03T12:30:33.479Z,13.70
2018-11-03T12:33:02.400Z,13.60
2018-11-03T12:35:31.305Z,13.70
2018-11-03T12:38:00.199Z,13.70
2018-11-03T12:40:29.279Z,13.90
2018-11-03T12:42:58.151Z,14.00
2018-11-03T12:45:28.099Z,14.00
2018-11-03T12:47:57.044Z,13.90
2018-11-03T12:50:26.019Z,13.60
2018-11-03T12:52:54.841Z,13.90
2018-11-03T12:55:24.829Z,13.40
2018-11-03T12:57:53.681Z,13.20
2018-11-03T13:00:23.755Z,13.30
2018-11-03T13:02:52.659Z,13.30
2018-11-03T13:05:22.690Z,13.60
2018-11-03T13:07:51.540Z,13.90
2018-11-03T13:10:20.504Z,14.20
2018-11-03T13:12:50.057Z,14.30
2018-11-03T13:15:19.110Z,14.50
2018-11-03T13:17:47.969Z,14.70
2018-11-03T13:20:17.062Z,15.10
2018-11-03T13:22:46.174Z,15.00
2018-11-03T13:25:15.953Z,15.20
2018-11-03T13:27:45.036Z,15.40
2018-11-03T13:30:15.107Z,15.50
2018-11-03T13:32:45.354Z,15.50
2018-11-03T13:35:15.469Z,15.50
2018-11-03T13:37:44.951Z,15.60
2018-11-03T13:40:14.596Z,16.10
2018-11-03T13:42:44.177Z,16.60
2018-11-03T13:45:13.777Z,16.90
2018-11-03T13:47:42.700Z,17.00
2018-11-03T13:50:14.136Z,16.50
2018-11-03T13:52:44.743Z,16.00
2018-11-03T13:55:13.758Z,15.30
2018-11-03T13:57:43.782Z,14.40
2018-11-03T14:00:14.262Z,13.90
2018-11-03T14:02:44.230Z,13.50
2018-11-03T14:05:13.353Z,13.40
2018-11-03T14:07:42.253Z,13.50
2018-11-03T14:10:14.118Z,14.30
2018-11-03T14:12:44.545Z,15.10
2018-11-03T14:15:16.320Z,15.60
2018-11-03T14:17:45.167Z,16.30
2018-11-03T14:20:15.545Z,16.90
2018-11-03T14:22:45.129Z,17.10
2018-11-03T14:25:16.603Z,17.50
2018-11-03T14:27:46.374Z,17.70
2018-11-03T14:30:15.493Z,17.70
2018-11-03T14:32:44.564Z,17.80
2018-11-03T14:35:14.539Z,17.60
2018-11-03T14:37:43.394Z,17.40
2018-11-03T14:40:14.176Z,17.40
2018-11-03T14:42:44.155Z,16.80
2018-11-03T14:45:14.249Z,16.80
2018-11-03T14:47:43.167Z,16.80
2018-11-03T14:50:12.259Z,16.90
2018-11-03T14:52:42.413Z,16.80
2018-11-03T14:55:12.288Z,16.80
2018-11-03T14:57:41.344Z,17.10
2018-11-03T15:00:14.387Z,17.40
2018-11-03T15:02:43.344Z,17.40
2018-11-03T15:05:12.850Z,17.30
2018-11-03T15:07:41.748Z,17.10
2018-11-03T15:10:11.812Z,17.20
2018-11-03T15:12:41.726Z,17.30
2018-11-03T15:15:12.527Z,17.30
2018-11-03T15:17:41.560Z,17.20
2018-11-03T15:20:11.877Z,16.90
2018-11-03T15:22:41.185Z,16.40
2018-11-03T15:25:11.477Z,15.90
2018-11-03T15:27:41.193Z,15.30
2018-11-03T15:30:12.460Z,14.80
2018-11-03T15:32:41.884Z,14.30
2018-11-03T15:35:11.958Z,13.60
2018-11-03T15:37:40.774Z,12.80
2018-11-03T15:40:12.817Z,12.10
2018-11-03T15:42:41.718Z,11.40
2018-11-03T15:45:16.544Z,10.90
2018-11-03T15:47:46.616Z,10.40
2018-11-03T15:50:17.644Z,10.00
2018-11-03T15:52:47.014Z,9.60
2018-11-03T15:55:16.679Z,9.30
2018-11-03T15:57:48.401Z,9.00
2018-11-03T16:00:18.396Z,8.70
2018-11-03T16:02:48.208Z,8.40
2018-11-03T16:05:21.198Z,8.20
2018-11-03T16:07:50.070Z,8.00
2018-11-03T16:10:19.177Z,7.80
2018-11-03T16:12:48.270Z,7.70
2018-11-03T16:15:17.251Z,7.50
2018-11-03T16:17:46.167Z,7.30
2018-11-03T16:20:15.237Z,7.20
2018-11-03T16:22:44.493Z,7.00
2018-11-03T16:25:13.608Z,7.00
2018-11-03T16:27:42.532Z,6.90
2018-11-03T16:30:13.938Z,6.80
2018-11-03T16:32:43.054Z,6.70
2018-11-03T16:35:11.928Z,6.60
2018-11-03T16:37:41.110Z,6.50
2018-11-03T16:40:12.883Z,6.40
2018-11-03T16:42:42.527Z,6.40
2018-11-03T16:45:13.262Z,6.30
2018-11-03T16:47:42.524Z,6.20
2018-11-03T16:50:12.883Z,6.10
2018-11-03T16:52:42.957Z,6.10
2018-11-03T16:55:13.238Z,5.90
2018-11-03T16:57:42.488Z,5.80
2018-11-03T17:00:15.039Z,5.80
2018-11-03T17:02:44.332Z,5.70
2018-11-03T17:05:15.308Z,5.70
2018-11-03T17:07:44.203Z,5.60
2018-11-03T17:10:14.707Z,5.60
2018-11-03T17:12:45.278Z,5.50
2018-11-03T17:15:17.852Z,5.40
2018-11-03T17:17:46.929Z,5.30
2018-11-03T17:20:16.556Z,5.20
2018-11-03T17:22:45.453Z,5.20
2018-11-03T17:25:15.629Z,5.10
2018-11-03T17:27:44.759Z,5.00
2018-11-03T17:30:15.094Z,5.00
2018-11-03T17:32:44.472Z,4.90
2018-11-03T17:35:13.758Z,4.90
2018-11-03T17:37:43.047Z,4.80
2018-11-03T17:40:14.179Z,4.80
2018-11-03T17:42:43.101Z,4.70
2018-11-03T17:45:12.824Z,4.70
2018-11-03T17:47:41.934Z,4.60
2018-11-03T17:50:15.521Z,4.50
2018-11-03T17:52:45.313Z,4.40
2018-11-03T17:55:14.315Z,4.40
2018-11-03T17:57:43.145Z,4.30
2018-11-03T18:00:17.215Z,4.30
2018-11-03T18:02:46.859Z,4.30
2018-11-03T18:05:19.618Z,4.20
2018-11-03T18:07:49.099Z,4.20
2018-11-03T18:10:18.152Z,4.20
2018-11-03T18:12:47.001Z,4.10
2018-11-03T18:15:17.019Z,4.10
2018-11-03T18:17:45.877Z,4.10
2018-11-03T18:20:14.926Z,4.00
2018-11-03T18:22:43.875Z,4.00
2018-11-03T18:25:12.876Z,3.90
2018-11-03T18:27:41.731Z,3.90
2018-11-03T18:30:14.706Z,3.80
2018-11-03T18:32:43.596Z,3.70
2018-11-03T18:35:15.839Z,3.70
2018-11-03T18:37:44.873Z,3.60
2018-11-03T18:40:20.408Z,3.60
2018-11-03T18:42:49.340Z,3.50
2018-11-03T18:45:18.349Z,3.50
2018-11-03T18:47:47.228Z,3.50
2018-11-03T18:50:16.241Z,3.50
2018-11-03T18:52:45.084Z,3.40
2018-11-03T18:55:17.576Z,3.40
2018-11-03T18:57:46.498Z,3.30
2018-11-03T19:00:16.527Z,3.30
2018-11-03T19:02:45.453Z,3.20
2018-11-03T19:05:14.866Z,3.20
2018-11-03T19:07:43.843Z,3.20
2018-11-03T19:10:14.841Z,3.10
2018-11-03T19:12:43.791Z,3.10
2018-11-03T19:15:12.848Z,3.10
2018-11-03T19:17:41.712Z,3.10
2018-11-03T19:20:13.054Z,3.00
2018-11-03T19:22:42.274Z,3.00
2018-11-03T19:25:12.469Z,3.00
2018-11-03T19:27:41.891Z,2.90
2018-11-03T19:30:12.372Z,2.90
2018-11-03T19:32:42.743Z,2.90
2018-11-03T19:35:11.773Z,2.90
2018-11-03T19:37:41.139Z,2.90
2018-11-03T19:40:11.688Z,2.90
2018-11-03T19:42:41.194Z,2.90
2018-11-03T19:45:10.903Z,2.90
2018-11-03T19:47:39.785Z,2.90
2018-11-03T19:50:09.258Z,3.00
2018-11-03T19:52:38.102Z,3.00
2018-11-03T19:55:07.173Z,3.00
2018-11-03T19:57:36.149Z,3.00
2018-11-03T20:00:06.870Z,3.00
2018-11-03T20:02:35.880Z,3.00
2018-11-03T20:05:05.073Z,3.00
2018-11-03T20:07:33.960Z,3.00
2018-11-03T20:10:04.203Z,3.00
2018-11-03T20:12:33.035Z,3.00
2018-11-03T20:15:02.029Z,3.00
2018-11-03T20:17:31.071Z,3.00
2018-11-03T20:20:00.036Z,3.00
2018-11-03T20:22:28.879Z,3.00
2018-11-03T20:24:57.854Z,2.90
2018-11-03T20:27:26.739Z,2.80
2018-11-03T20:29:59.488Z,2.70
2018-11-03T20:32:28.373Z,2.60
2018-11-03T20:34:57.442Z,2.60
2018-11-03T20:37:26.270Z,2.60
2018-11-03T20:39:55.216Z,2.60
2018-11-03T20:42:24.101Z,2.60
2018-11-03T20:44:53.079Z,2.60
2018-11-03T20:47:21.986Z,2.60
2018-11-03T20:49:52.208Z,2.50
2018-11-03T20:52:21.088Z,2.50
2018-11-03T20:54:50.347Z,2.50
2018-11-03T20:57:19.568Z,2.40
2018-11-03T20:59:48.617Z,2.40
2018-11-03T21:02:17.499Z,2.40
2018-11-03T21:04:46.609Z,2.40
2018-11-03T21:07:15.518Z,2.40
2018-11-03T21:09:44.663Z,2.40
2018-11-03T21:12:13.504Z,2.40
2018-11-03T21:14:42.509Z,2.40
2018-11-03T21:17:11.421Z,2.30
2018-11-03T21:19:39.527Z,2.40
2018-11-03T21:22:09.103Z,2.30
2018-11-03T21:24:37.284Z,2.40
2018-11-03T21:27:05.890Z,2.30
2018-11-03T21:29:37.648Z,2.30
2018-11-03T21:32:06.274Z,2.30
2018-11-03T21:34:34.319Z,2.20
2018-11-03T21:37:02.426Z,2.20
2018-11-03T21:39:30.403Z,2.20
2018-11-03T21:41:58.376Z,2.20
2018-11-03T21:44:26.498Z,2.20
2018-11-03T21:46:54.640Z,2.20
2018-11-03T21:49:26.158Z,2.10
2018-11-03T21:51:54.152Z,2.10
2018-11-03T21:54:22.278Z,2.10
2018-11-03T21:56:50.378Z,2.10
2018-11-03T21:59:18.595Z,2.10
2018-11-03T22:01:46.560Z,2.10
2018-11-03T22:04:16.620Z,2.00
2018-11-03T22:06:44.657Z,2.00
2018-11-03T22:09:13.633Z,2.00
2018-11-03T22:11:41.671Z,2.10
2018-11-03T22:14:09.969Z,2.10
2018-11-03T22:16:38.052Z,2.10
2018-11-03T22:19:06.177Z,2.10
2018-11-03T22:21:34.213Z,2.20
2018-11-03T22:24:02.660Z,2.20
2018-11-03T22:26:30.945Z,2.20
2018-11-03T22:28:59.092Z,2.30
2018-11-03T22:31:27.100Z,2.30
2018-11-03T22:33:56.263Z,2.40
2018-11-03T22:36:24.247Z,2.50
2018-11-03T22:38:52.428Z,2.60
2018-11-03T22:41:20.405Z,2.60
2018-11-03T22:43:48.546Z,2.50
2018-11-03T22:46:16.537Z,2.50
2018-11-03T22:48:44.673Z,2.40
2018-11-03T22:51:15.634Z,2.30
2018-11-03T22:53:45.158Z,2.30
2018-11-03T22:56:13.385Z,2.20
2018-11-03T22:58:48.851Z,2.20
2018-11-03T23:01:16.817Z,2.20
2018-11-03T23:03:44.966Z,2.10
2018-11-03T23:06:12.991Z,2.20
2018-11-03T23:08:41.246Z,2.20
2018-11-03T23:11:09.297Z,2.20
2018-11-03T23:13:37.450Z,2.20
2018-11-03T23:16:05.554Z,2.20
2018-11-03T23:18:33.700Z,2.10
2018-11-03T23:21:01.672Z,2.10
2018-11-03T23:23:30.849Z,2.10
2018-11-03T23:25:58.854Z,2.00
2018-11-03T23:28:27.033Z,2.00
2018-11-03T23:30:55.021Z,1.90
2018-11-03T23:33:24.194Z,1.90
2018-11-03T23:35:52.318Z,1.90
2018-11-03T23:38:20.331Z,1.90
2018-11-03T23:40:48.474Z,1.90
2018-11-03T23:43:16.488Z,2.00
2018-11-03T23:45:44.609Z,2.00
2018-11-03T23:48:12.602Z,2.00
2018-11-03T23:50:40.792Z,2.00
2018-11-03T23:53:08.789Z,2.00
2018-11-03T23:55:36.993Z,2.00
2018-11-03T23:58:05.275Z,2.00
